createdAt,value
2018-12-04T00:10:09.355Z,10.91
2018-12-04T00:15:04.092Z,10.89
2018-12-04T00:19:58.678Z,10.89
2018-12-04T00:24:53.147Z,10.89
2018-12-04T00:29:47.663Z,10.89
2018-12-04T00:50:57.252Z,10.79
2018-12-04T00:55:51.741Z,10.74
2018-12-04T01:00:46.248Z,10.76
2018-12-04T01:05:40.731Z,10.67
2018-12-04T01:10:35.168Z,10.61
2018-12-04T01:26:19.402Z,10.18
2018-12-04T01:31:13.983Z,10.15
2018-12-04T01:36:08.540Z,10.18
2018-12-04T01:41:03.063Z,10.27
2018-12-04T02:02:12.348Z,10.24
2018-12-04T02:07:06.950Z,10.15
2018-12-04T02:12:01.535Z,10.17
2018-12-04T02:16:56.044Z,10.23
2018-12-04T02:21:50.559Z,10.25
2018-12-04T02:26:45.135Z,10.19
2018-12-04T02:31:39.715Z,10.15
2018-12-04T02:36:34.334Z,10.06
2018-12-04T02:41:28.868Z,9.95
2018-12-04T03:02:38.174Z,9.98
2018-12-04T03:07:32.709Z,9.99
2018-12-04T03:12:27.312Z,10.03
2018-12-04T03:17:21.883Z,10.11
2018-12-04T03:22:16.479Z,10.11
2018-12-04T03:43:25.499Z,10.08
2018-12-04T03:48:19.988Z,10.16
2018-12-04T03:53:14.475Z,10.16
2018-12-04T03:58:08.978Z,10.19
2018-12-04T04:03:03.582Z,10.17
2018-12-04T04:18:48.008Z,10.10
2018-12-04T04:23:42.481Z,10.13
2018-12-04T04:28:37.036Z,10.04
2018-12-04T04:33:31.511Z,10.06
2018-12-04T04:54:40.378Z,10.18
2018-12-04T04:59:34.923Z,10.14
2018-12-04T05:04:29.444Z,10.17
2018-12-04T05:09:24.011Z,10.17
2018-12-04T05:14:18.507Z,10.16
2018-12-04T05:19:13.023Z,10.14
2018-12-04T05:24:07.527Z,9.93
2018-12-04T05:29:02.063Z,9.76
2018-12-04T05:50:13.723Z,9.04
2018-12-04T05:55:08.259Z,9.07
2018-12-04T06:00:02.791Z,9.12
2018-12-04T06:04:57.488Z,9.35
2018-12-04T06:09:52.029Z,9.25
2018-12-04T06:14:46.895Z,9.03
2018-12-04T06:19:41.438Z,8.93
2018-12-04T06:24:36.033Z,9.00
2018-12-04T06:29:30.650Z,9.05
2018-12-04T06:50:46.806Z,9.55
2018-12-04T06:55:41.356Z,9.66
2018-12-04T07:00:35.918Z,9.69
2018-12-04T07:05:32.047Z,9.81
2018-12-04T07:10:27.704Z,9.73
2018-12-04T07:31:38.058Z,10.08
2018-12-04T07:36:32.864Z,10.10
2018-12-04T07:41:27.592Z,10.13
2018-12-04T07:46:22.183Z,10.16
2018-12-04T07:51:16.889Z,10.15
2018-12-04T08:07:01.188Z,10.04
2018-12-04T08:11:56.164Z,10.08
2018-12-04T08:16:50.818Z,10.12
2018-12-04T08:21:48.721Z,10.13
2018-12-04T08:42:57.936Z,10.29
2018-12-04T08:47:52.596Z,10.39
2018-12-04T08:52:47.334Z,10.53
2018-12-04T08:57:41.981Z,10.52
2018-12-04T09:02:36.775Z,10.59
2018-12-04T09:23:45.958Z,11.12
2018-12-04T09:28:41.967Z,11.25
2018-12-04T09:33:36.614Z,11.39
2018-12-04T09:38:31.345Z,11.45
2018-12-04T09:43:26.370Z,11.54
2018-12-04T09:59:24.520Z,11.35
2018-12-04T10:04:19.320Z,11.35
2018-12-04T10:09:14.632Z,11.30
2018-12-04T10:14:09.490Z,11.30
2018-12-04T10:19:04.578Z,11.37
2018-12-04T10:40:13.896Z,11.62
2018-12-04T10:45:09.016Z,11.84
2018-12-04T10:50:05.202Z,12.12
2018-12-04T10:55:04.438Z,12.03
2018-12-04T10:59:57.796Z,12.07
2018-12-04T11:21:07.531Z,11.94
2018-12-04T11:26:02.341Z,11.90
2018-12-04T11:30:57.459Z,11.94
2018-12-04T11:35:52.919Z,11.84
2018-12-04T11:40:52.201Z,11.79
2018-12-04T11:56:36.128Z,12.00
2018-12-04T12:01:32.153Z,12.27
2018-12-04T12:06:26.956Z,12.41
2018-12-04T12:11:25.507Z,12.56
2018-12-04T12:32:35.666Z,12.79
2018-12-04T12:37:37.434Z,12.95
2018-12-04T12:42:39.220Z,13.04
2018-12-04T12:47:34.111Z,13.19
2018-12-04T12:52:29.969Z,13.03
2018-12-04T12:57:24.919Z,12.71
2018-12-04T13:02:19.659Z,12.54
2018-12-04T13:07:15.136Z,12.76
2018-12-04T13:12:10.672Z,12.97
2018-12-04T13:33:19.361Z,13.40
2018-12-04T13:38:13.907Z,13.24
2018-12-04T13:43:09.288Z,12.89
2018-12-04T13:48:03.871Z,12.71
2018-12-04T13:52:59.404Z,12.67
2018-12-04T14:14:09.226Z,12.31
2018-12-04T14:19:05.897Z,12.35
2018-12-04T14:24:01.569Z,11.52
2018-12-04T14:28:55.789Z,10.32
2018-12-04T14:33:51.757Z,9.85
2018-12-04T14:49:38.612Z,8.80
2018-12-04T14:54:34.645Z,8.82
2018-12-04T14:59:30.016Z,8.80
2018-12-04T15:04:25.334Z,8.99
2018-12-04T15:25:35.051Z,9.28
2018-12-04T15:30:31.502Z,9.34
2018-12-04T15:35:38.228Z,9.42
2018-12-04T15:40:34.195Z,9.21
2018-12-04T15:45:29.223Z,9.01
2018-12-04T15:50:23.879Z,8.96
2018-12-04T15:55:18.562Z,9.00
2018-12-04T16:00:14.880Z,8.96
2018-12-04T16:05:10.987Z,8.90
2018-12-04T16:26:20.386Z,8.91
2018-12-04T16:31:16.119Z,8.79
2018-12-04T16:36:15.960Z,8.77
2018-12-04T16:41:10.639Z,8.82
2018-12-04T16:46:07.523Z,8.90
2018-12-04T17:07:17.128Z,8.83
2018-12-04T17:12:11.639Z,8.91
2018-12-04T17:17:07.479Z,8.90
2018-12-04T17:22:02.091Z,8.94
2018-12-04T17:26:56.710Z,8.86
2018-12-04T17:37:16.903Z,8.87
2018-12-04T17:42:11.447Z,8.95
2018-12-04T17:47:06.064Z,8.95
2018-12-04T17:52:00.642Z,8.97
2018-12-04T18:13:09.573Z,8.95
2018-12-04T18:18:04.171Z,8.92
2018-12-04T18:22:58.777Z,8.83
2018-12-04T18:27:53.511Z,8.89
2018-12-04T18:32:48.134Z,8.90
2018-12-04T18:37:42.715Z,8.90
2018-12-04T18:42:37.249Z,8.91
2018-12-04T18:47:31.803Z,8.91
2018-12-04T18:52:26.337Z,8.94
2018-12-04T19:13:35.044Z,8.85
2018-12-04T19:18:29.819Z,8.79
2018-12-04T19:23:24.748Z,8.82
2018-12-04T19:28:19.374Z,8.86
2018-12-04T19:33:13.971Z,8.85
2018-12-04T19:54:23.354Z,8.56
2018-12-04T19:59:17.831Z,8.53
2018-12-04T20:04:12.551Z,8.60
2018-12-04T20:09:09.287Z,8.51
2018-12-04T20:14:03.879Z,8.58
2018-12-04T20:29:48.439Z,8.66
2018-12-04T20:34:42.932Z,8.66
2018-12-04T20:39:37.511Z,8.70
2018-12-04T20:44:32.058Z,8.67
2018-12-04T21:05:40.603Z,8.74
2018-12-04T21:10:35.100Z,8.73
2018-12-04T21:15:29.644Z,8.65
2018-12-04T21:20:24.205Z,8.58
2018-12-04T21:25:18.743Z,8.64
2018-12-04T21:30:18.406Z,8.50
2018-12-04T21:35:18.179Z,8.52
2018-12-04T21:40:17.942Z,8.52
2018-12-04T21:45:17.704Z,8.53
2018-12-04T21:50:12.164Z,8.46
2018-12-04T22:11:21.876Z,8.44
2018-12-04T22:16:16.394Z,8.47
2018-12-04T22:21:10.900Z,8.48
2018-12-04T22:26:05.477Z,8.44
2018-12-04T22:31:00.014Z,8.39
2018-12-04T22:52:09.228Z,8.24
2018-12-04T22:57:03.732Z,8.23
2018-12-04T23:01:58.299Z,8.10
2018-12-04T23:06:52.828Z,7.90
2018-12-04T23:11:47.452Z,8.05
2018-12-04T23:22:07.345Z,8.12
2018-12-04T23:27:01.928Z,8.04
2018-12-04T23:31:56.679Z,8.10
2018-12-04T23:36:51.318Z,8.18
2018-12-04T23:58:01.147Z,8.21
